Portada
METAR-TAF:

METAR-TAF

Aeroports :

Base aèria

Solenzara, França

latitud: 41-55N, longitud: 009-24E, altitud: 8 m

Observació

L'informe es va fer fa 32 minuts, a les 14:00 UTC
Vent 8 kt del Sud/Sud-Est, variant entre Est/Sud-Est i Sud
Temperatura 28°C
Humitat 66%
Pressió 1018 hPa
Visibilitat 10 km o més
sense núvols per sota de 1500 mi sense presència de cumulonimbus.

METAR: LFKS 201400Z AUTO 15008KT 120V180 CAVOK 28/21 Q1018

Hora: 16:32 (14:32 UTC)

Pronòstic

L'informe es va fer fa 30 hores i 32 minuts, a les 08:00 UTC
Pronòstic vàlid del 19 a les 09 UTC al 20 a les 09 UTC
Vent 5 kt del Est/Nord-Est
Visibilitat 10 km o més
Escasses núvols a una alçada de 4500 ft
Temporalment
l' 19 a les 12 UTC al 19 a les 16 UTC
Escasses núvols a una alçada de 7000 ft, Cumulus congestus.

TAF: LFKS 190800Z 1909/2009 07005KT 9999 FEW045 TEMPO 1912/1916 FEW070TCU

Observacions i pronòstics meteorològics de més de 4000 aeroports (METAR i TAF).

Les estacions disponibles són els punts grocs i vermells al mapa.

Posi el ratolí al punt desitjat per veure el nom de l'estació.

Feu clic per veure les observacions i els pronòstics meteorològics.

Per canviar el mapa: feu clic els botons verds amb una creu de color negre per apropar; al botó verd amb un guió per allunyar la imatge; o en les fletxes verdes per a mapes adjacents.


METAR-TAF: